This is the latest recevied weather packets stored in our database for station/object OK1FCB-1. If no packets are shown the sender has not sent any weather packets the latest 10 day(s).
| Time | Temp. | Humidity | Pressure | Rain* | Wind** | Luminosity | Snow |
|---|---|---|---|---|---|---|---|
| 1788155262 | 15.56° C | 80% | 1018.7 hPa | - | - | - | - |
| 1788154364 | 15° C | 81% | 1018.7 hPa | - | - | - | - |
| 1788152568 | 14.44° C | 83% | 1018.7 hPa | - | - | - | - |
| 1788151669 | 13.89° C | 84% | 1018.7 hPa | - | - | - | - |
| 1788150771 | 13.33° C | 84% | 1018.7 hPa | - | - | - | - |
| 1788145383 | 13.33° C | 82% | 1019.2 hPa | - | - | - | - |
| 1788144485 | 13.33° C | 82% | 1019.3 hPa | - | - | - | - |
| 1788143587 | 13.33° C | 83% | 1019.2 hPa | - | - | - | - |
| 1788141792 | 13.33° C | 82% | 1019.3 hPa | - | - | - | - |
| 1788121149 | 16.67° C | 69% | 1019.2 hPa | - | - | - | - |
| 1788116661 | 17.78° C | 63% | 1019 hPa | - | - | - | - |
| 1788114866 | 18.89° C | 60% | 1018.9 hPa | - | - | - | - |
| 1788113970 | 19.44° C | 58% | 1018.8 hPa | - | - | - | - |
| 1788105895 | 27.78° C | 45% | 1018.2 hPa | - | - | - | - |
| 1788104998 | 27.22° C | 46% | 1018.2 hPa | - | - | - | - |
| 1788104099 | 26.67° C | 45% | 1018.3 hPa | - | - | - | - |
| 1788100522 | 33.33° C | 37% | 1018.4 hPa | - | - | - | - |
| 1788099626 | 33.89° C | 37% | 1018.4 hPa | - | - | - | - |
| 1788098725 | 32.78° C | 38% | 1018.5 hPa | - | - | - | - |
| 1788089735 | 27.22° C | 45% | 1019.4 hPa | - | - | - | - |
| 1788085252 | 29.44° C | 43% | 1019.9 hPa | - | - | - | - |
| 1788084352 | 28.89° C | 45% | 1020 hPa | - | - | - | - |
| 1788083458 | 30° C | 44% | 1020.2 hPa | - | - | - | - |
| 1788082561 | 29.44° C | 44% | 1020.2 hPa | - | - | - | - |
| 1788080762 | 28.33° C | 47% | 1020.3 hPa | - | - | - | - |
* Rain since midnight (hover to see other rain measurements)
** Current wind speed in m/s (hover to see current wind gust speed)